sensor_id;sensor_type;location;lat;lon;timestamp;P1;durP1;ratioP1;P2;durP2;ratioP2
3571;SDS011;7958;53.024;12.970;2023-04-06T00:00:08;3.00;;;2.10;;
3571;SDS011;7958;53.024;12.970;2023-04-06T00:02:36;4.13;;;2.87;;
3571;SDS011;7958;53.024;12.970;2023-04-06T00:05:04;2.40;;;2.30;;
3571;SDS011;7958;53.024;12.970;2023-04-06T00:07:33;2.37;;;2.17;;
3571;SDS011;7958;53.024;12.970;2023-04-06T00:10:00;4.83;;;2.50;;
3571;SDS011;7958;53.024;12.970;2023-04-06T00:12:27;3.73;;;2.60;;
3571;SDS011;7958;53.024;12.970;2023-04-06T00:14:53;3.13;;;2.20;;
3571;SDS011;7958;53.024;12.970;2023-04-06T00:17:20;2.43;;;2.23;;
3571;SDS011;7958;53.024;12.970;2023-04-06T00:19:46;2.30;;;2.10;;
3571;SDS011;7958;53.024;12.970;2023-04-06T00:22:13;2.83;;;2.43;;
3571;SDS011;7958;53.024;12.970;2023-04-06T00:24:40;2.67;;;2.47;;
3571;SDS011;7958;53.024;12.970;2023-04-06T00:27:07;3.97;;;2.53;;
3571;SDS011;7958;53.024;12.970;2023-04-06T00:29:33;2.20;;;2.07;;
3571;SDS011;7958;53.024;12.970;2023-04-06T00:32:00;2.50;;;2.17;;
3571;SDS011;7958;53.024;12.970;2023-04-06T00:34:26;3.43;;;2.70;;
3571;SDS011;7958;53.024;12.970;2023-04-06T00:36:53;2.70;;;2.20;;
3571;SDS011;7958;53.024;12.970;2023-04-06T00:39:19;3.87;;;2.47;;
3571;SDS011;7958;53.024;12.970;2023-04-06T00:41:49;3.30;;;2.70;;
3571;SDS011;7958;53.024;12.970;2023-04-06T00:44:16;2.10;;;2.00;;
3571;SDS011;7958;53.024;12.970;2023-04-06T00:46:42;2.40;;;2.13;;
3571;SDS011;7958;53.024;12.970;2023-04-06T00:49:10;2.07;;;1.87;;
3571;SDS011;7958;53.024;12.970;2023-04-06T00:51:36;3.83;;;2.07;;
3571;SDS011;7958;53.024;12.970;2023-04-06T00:54:03;3.90;;;2.23;;
3571;SDS011;7958;53.024;12.970;2023-04-06T00:56:30;1.87;;;1.77;;
3571;SDS011;7958;53.024;12.970;2023-04-06T00:58:58;3.07;;;2.60;;
3571;SDS011;7958;53.024;12.970;2023-04-06T01:01:25;5.30;;;2.50;;
3571;SDS011;7958;53.024;12.970;2023-04-06T01:03:52;2.50;;;2.10;;
3571;SDS011;7958;53.024;12.970;2023-04-06T01:06:19;1.90;;;1.80;;
3571;SDS011;7958;53.024;12.970;2023-04-06T01:08:45;2.23;;;2.03;;
3571;SDS011;7958;53.024;12.970;2023-04-06T01:11:12;3.00;;;2.43;;
3571;SDS011;7958;53.024;12.970;2023-04-06T01:13:38;2.20;;;2.00;;
3571;SDS011;7958;53.024;12.970;2023-04-06T01:16:06;3.10;;;2.33;;
3571;SDS011;7958;53.024;12.970;2023-04-06T01:18:33;2.20;;;2.00;;
3571;SDS011;7958;53.024;12.970;2023-04-06T01:21:00;3.37;;;2.47;;
3571;SDS011;7958;53.024;12.970;2023-04-06T01:23:28;2.73;;;2.27;;
3571;SDS011;7958;53.024;12.970;2023-04-06T01:25:54;2.63;;;2.30;;
3571;SDS011;7958;53.024;12.970;2023-04-06T01:28:21;3.37;;;2.60;;
3571;SDS011;7958;53.024;12.970;2023-04-06T01:30:47;2.90;;;2.63;;
3571;SDS011;7958;53.024;12.970;2023-04-06T01:33:14;3.00;;;2.40;;
3571;SDS011;7958;53.024;12.970;2023-04-06T01:35:40;2.40;;;2.20;;
3571;SDS011;7958;53.024;12.970;2023-04-06T01:38:06;3.73;;;2.23;;
3571;SDS011;7958;53.024;12.970;2023-04-06T01:40:34;2.43;;;2.20;;
3571;SDS011;7958;53.024;12.970;2023-04-06T01:43:01;2.87;;;2.63;;
3571;SDS011;7958;53.024;12.970;2023-04-06T01:45:27;2.80;;;2.53;;
3571;SDS011;7958;53.024;12.970;2023-04-06T01:47:54;2.37;;;2.17;;
3571;SDS011;7958;53.024;12.970;2023-04-06T01:50:20;3.43;;;2.50;;
3571;SDS011;7958;53.024;12.970;2023-04-06T01:52:47;2.73;;;2.53;;
3571;SDS011;7958;53.024;12.970;2023-04-06T01:55:13;2.53;;;2.20;;
3571;SDS011;7958;53.024;12.970;2023-04-06T01:57:41;7.83;;;2.30;;
3571;SDS011;7958;53.024;12.970;2023-04-06T02:00:08;3.70;;;2.33;;
3571;SDS011;7958;53.024;12.970;2023-04-06T02:02:35;2.87;;;2.30;;
3571;SDS011;7958;53.024;12.970;2023-04-06T02:05:02;3.40;;;2.40;;
3571;SDS011;7958;53.024;12.970;2023-04-06T02:07:28;2.50;;;2.33;;
3571;SDS011;7958;53.024;12.970;2023-04-06T02:09:55;4.10;;;2.50;;
3571;SDS011;7958;53.024;12.970;2023-04-06T02:12:22;2.40;;;2.20;;
3571;SDS011;7958;53.024;12.970;2023-04-06T02:14:50;2.13;;;1.93;;
3571;SDS011;7958;53.024;12.970;2023-04-06T02:17:17;1.80;;;1.70;;
3571;SDS011;7958;53.024;12.970;2023-04-06T02:19:43;3.70;;;2.67;;
3571;SDS011;7958;53.024;12.970;2023-04-06T02:22:09;2.20;;;2.00;;
3571;SDS011;7958;53.024;12.970;2023-04-06T02:24:36;2.67;;;2.47;;
3571;SDS011;7958;53.024;12.970;2023-04-06T02:27:03;2.70;;;2.10;;
3571;SDS011;7958;53.024;12.970;2023-04-06T02:29:30;3.23;;;2.53;;
3571;SDS011;7958;53.024;12.970;2023-04-06T02:31:57;3.90;;;2.50;;
3571;SDS011;7958;53.024;12.970;2023-04-06T02:34:24;2.77;;;2.47;;
3571;SDS011;7958;53.024;12.970;2023-04-06T02:36:51;2.73;;;2.53;;
3571;SDS011;7958;53.024;12.970;2023-04-06T02:39:17;2.60;;;2.40;;
3571;SDS011;7958;53.024;12.970;2023-04-06T02:41:43;2.20;;;2.03;;
3571;SDS011;7958;53.024;12.970;2023-04-06T02:44:10;4.00;;;2.50;;
3571;SDS011;7958;53.024;12.970;2023-04-06T02:46:37;3.53;;;2.53;;
3571;SDS011;7958;53.024;12.970;2023-04-06T02:49:05;3.70;;;2.47;;
3571;SDS011;7958;53.024;12.970;2023-04-06T02:51:31;2.57;;;2.30;;
3571;SDS011;7958;53.024;12.970;2023-04-06T02:53:57;2.53;;;2.33;;
3571;SDS011;7958;53.024;12.970;2023-04-06T02:56:24;2.30;;;2.10;;
3571;SDS011;7958;53.024;12.970;2023-04-06T02:58:51;1.93;;;1.77;;
3571;SDS011;7958;53.024;12.970;2023-04-06T03:01:18;2.80;;;2.60;;
3571;SDS011;7958;53.024;12.970;2023-04-06T03:03:45;3.70;;;2.40;;
3571;SDS011;7958;53.024;12.970;2023-04-06T03:06:13;3.80;;;2.27;;
3571;SDS011;7958;53.024;12.970;2023-04-06T03:08:39;2.07;;;1.97;;
3571;SDS011;7958;53.024;12.970;2023-04-06T03:11:06;2.10;;;1.90;;
3571;SDS011;7958;53.024;12.970;2023-04-06T03:13:32;2.03;;;1.93;;
3571;SDS011;7958;53.024;12.970;2023-04-06T03:15:59;6.87;;;2.37;;
3571;SDS011;7958;53.024;12.970;2023-04-06T03:18:25;4.80;;;2.50;;
3571;SDS011;7958;53.024;12.970;2023-04-06T03:20:52;3.10;;;2.30;;
3571;SDS011;7958;53.024;12.970;2023-04-06T03:23:21;2.27;;;2.10;;
3571;SDS011;7958;53.024;12.970;2023-04-06T03:25:48;2.40;;;2.20;;
3571;SDS011;7958;53.024;12.970;2023-04-06T03:28:14;2.30;;;2.10;;
3571;SDS011;7958;53.024;12.970;2023-04-06T03:30:41;3.43;;;2.50;;
3571;SDS011;7958;53.024;12.970;2023-04-06T03:33:08;2.40;;;2.20;;
3571;SDS011;7958;53.024;12.970;2023-04-06T03:35:35;3.63;;;2.17;;
3571;SDS011;7958;53.024;12.970;2023-04-06T03:38:02;2.80;;;2.50;;
3571;SDS011;7958;53.024;12.970;2023-04-06T03:40:30;2.60;;;2.40;;
3571;SDS011;7958;53.024;12.970;2023-04-06T03:42:56;2.43;;;2.17;;
3571;SDS011;7958;53.024;12.970;2023-04-06T03:45:22;3.23;;;2.30;;
3571;SDS011;7958;53.024;12.970;2023-04-06T03:47:49;2.60;;;2.37;;
3571;SDS011;7958;53.024;12.970;2023-04-06T03:50:15;2.90;;;2.60;;
3571;SDS011;7958;53.024;12.970;2023-04-06T03:52:42;3.03;;;2.43;;
3571;SDS011;7958;53.024;12.970;2023-04-06T03:55:08;2.43;;;2.20;;
3571;SDS011;7958;53.024;12.970;2023-04-06T03:57:36;4.87;;;2.53;;
3571;SDS011;7958;53.024;12.970;2023-04-06T04:00:03;2.17;;;2.07;;
3571;SDS011;7958;53.024;12.970;2023-04-06T04:02:31;3.60;;;2.70;;
3571;SDS011;7958;53.024;12.970;2023-04-06T04:04:57;3.30;;;2.90;;
3571;SDS011;7958;53.024;12.970;2023-04-06T04:07:24;3.63;;;3.00;;
3571;SDS011;7958;53.024;12.970;2023-04-06T04:09:50;4.73;;;2.60;;
3571;SDS011;7958;53.024;12.970;2023-04-06T04:12:17;9.37;;;3.30;;
3571;SDS011;7958;53.024;12.970;2023-04-06T04:14:45;5.43;;;2.60;;
3571;SDS011;7958;53.024;12.970;2023-04-06T04:17:11;3.63;;;2.60;;
3571;SDS011;7958;53.024;12.970;2023-04-06T04:19:38;3.37;;;2.70;;
3571;SDS011;7958;53.024;12.970;2023-04-06T04:22:05;2.77;;;2.40;;
3571;SDS011;7958;53.024;12.970;2023-04-06T04:24:31;3.43;;;3.13;;
3571;SDS011;7958;53.024;12.970;2023-04-06T04:26:58;2.80;;;2.60;;
3571;SDS011;7958;53.024;12.970;2023-04-06T04:29:25;2.60;;;2.40;;
3571;SDS011;7958;53.024;12.970;2023-04-06T04:31:53;3.10;;;2.80;;
3571;SDS011;7958;53.024;12.970;2023-04-06T04:34:20;4.40;;;2.73;;
3571;SDS011;7958;53.024;12.970;2023-04-06T04:36:48;2.50;;;2.30;;
3571;SDS011;7958;53.024;12.970;2023-04-06T04:39:15;2.40;;;2.13;;
3571;SDS011;7958;53.024;12.970;2023-04-06T04:41:41;2.20;;;2.10;;
3571;SDS011;7958;53.024;12.970;2023-04-06T04:44:08;3.83;;;2.67;;
3571;SDS011;7958;53.024;12.970;2023-04-06T04:46:34;4.50;;;2.97;;
3571;SDS011;7958;53.024;12.970;2023-04-06T04:49:02;3.53;;;2.50;;
3571;SDS011;7958;53.024;12.970;2023-04-06T04:51:28;3.60;;;2.70;;
3571;SDS011;7958;53.024;12.970;2023-04-06T04:53:55;3.40;;;2.83;;
3571;SDS011;7958;53.024;12.970;2023-04-06T04:56:21;3.87;;;3.00;;
3571;SDS011;7958;53.024;12.970;2023-04-06T04:58:50;5.50;;;3.70;;
3571;SDS011;7958;53.024;12.970;2023-04-06T05:01:16;4.23;;;3.57;;
3571;SDS011;7958;53.024;12.970;2023-04-06T05:03:43;4.90;;;3.83;;
3571;SDS011;7958;53.024;12.970;2023-04-06T05:06:10;6.37;;;3.17;;
3571;SDS011;7958;53.024;12.970;2023-04-06T05:08:37;3.67;;;3.23;;
3571;SDS011;7958;53.024;12.970;2023-04-06T05:11:03;5.20;;;2.83;;
3571;SDS011;7958;53.024;12.970;2023-04-06T05:13:30;5.20;;;3.00;;
3571;SDS011;7958;53.024;12.970;2023-04-06T05:15:56;3.10;;;2.70;;
3571;SDS011;7958;53.024;12.970;2023-04-06T05:18:23;9.30;;;3.30;;
3571;SDS011;7958;53.024;12.970;2023-04-06T05:20:49;4.33;;;3.03;;
3571;SDS011;7958;53.024;12.970;2023-04-06T05:23:18;4.20;;;2.97;;
3571;SDS011;7958;53.024;12.970;2023-04-06T05:25:44;3.30;;;2.93;;
3571;SDS011;7958;53.024;12.970;2023-04-06T05:28:10;2.93;;;2.40;;
3571;SDS011;7958;53.024;12.970;2023-04-06T05:30:39;2.40;;;2.20;;
3571;SDS011;7958;53.024;12.970;2023-04-06T05:33:05;10.07;;;3.27;;
3571;SDS011;7958;53.024;12.970;2023-04-06T05:35:32;2.90;;;2.70;;
3571;SDS011;7958;53.024;12.970;2023-04-06T05:37:58;3.07;;;2.70;;
3571;SDS011;7958;53.024;12.970;2023-04-06T05:40:26;3.70;;;2.77;;
3571;SDS011;7958;53.024;12.970;2023-04-06T05:42:53;4.50;;;3.20;;
3571;SDS011;7958;53.024;12.970;2023-04-06T05:45:20;4.93;;;3.13;;
3571;SDS011;7958;53.024;12.970;2023-04-06T05:47:46;6.30;;;4.20;;
3571;SDS011;7958;53.024;12.970;2023-04-06T05:50:14;4.60;;;2.90;;
3571;SDS011;7958;53.024;12.970;2023-04-06T05:52:41;5.17;;;3.17;;
3571;SDS011;7958;53.024;12.970;2023-04-06T05:55:08;4.23;;;3.60;;
3571;SDS011;7958;53.024;12.970;2023-04-06T05:57:37;3.33;;;3.03;;
3571;SDS011;7958;53.024;12.970;2023-04-06T06:00:04;6.40;;;3.77;;
3571;SDS011;7958;53.024;12.970;2023-04-06T06:02:33;7.07;;;4.30;;
3571;SDS011;7958;53.024;12.970;2023-04-06T06:05:00;7.10;;;3.83;;
3571;SDS011;7958;53.024;12.970;2023-04-06T06:07:26;6.90;;;4.17;;
3571;SDS011;7958;53.024;12.970;2023-04-06T06:09:55;6.10;;;3.63;;
3571;SDS011;7958;53.024;12.970;2023-04-06T06:12:22;4.97;;;3.80;;
3571;SDS011;7958;53.024;12.970;2023-04-06T06:14:50;5.00;;;3.43;;
3571;SDS011;7958;53.024;12.970;2023-04-06T06:17:17;5.90;;;3.63;;
3571;SDS011;7958;53.024;12.970;2023-04-06T06:19:43;5.20;;;3.60;;
3571;SDS011;7958;53.024;12.970;2023-04-06T06:22:10;6.87;;;3.90;;
3571;SDS011;7958;53.024;12.970;2023-04-06T06:24:36;5.13;;;3.50;;
3571;SDS011;7958;53.024;12.970;2023-04-06T06:27:02;3.73;;;3.33;;
3571;SDS011;7958;53.024;12.970;2023-04-06T06:29:29;5.83;;;3.47;;
3571;SDS011;7958;53.024;12.970;2023-04-06T06:31:56;3.60;;;3.30;;
3571;SDS011;7958;53.024;12.970;2023-04-06T06:34:23;3.77;;;3.40;;
3571;SDS011;7958;53.024;12.970;2023-04-06T06:36:49;5.50;;;3.40;;
3571;SDS011;7958;53.024;12.970;2023-04-06T06:39:16;3.83;;;3.30;;
3571;SDS011;7958;53.024;12.970;2023-04-06T06:41:43;3.70;;;3.30;;
3571;SDS011;7958;53.024;12.970;2023-04-06T06:44:09;3.90;;;2.93;;
3571;SDS011;7958;53.024;12.970;2023-04-06T06:46:37;5.67;;;3.03;;
3571;SDS011;7958;53.024;12.970;2023-04-06T06:49:04;5.33;;;3.50;;
3571;SDS011;7958;53.024;12.970;2023-04-06T06:51:31;4.20;;;3.30;;
3571;SDS011;7958;53.024;12.970;2023-04-06T06:53:57;3.37;;;3.07;;
3571;SDS011;7958;53.024;12.970;2023-04-06T06:56:24;4.90;;;3.07;;
3571;SDS011;7958;53.024;12.970;2023-04-06T06:58:51;3.40;;;3.07;;
3571;SDS011;7958;53.024;12.970;2023-04-06T07:01:18;3.63;;;3.10;;
3571;SDS011;7958;53.024;12.970;2023-04-06T07:03:45;3.90;;;3.23;;
3571;SDS011;7958;53.024;12.970;2023-04-06T07:06:13;4.33;;;3.33;;
3571;SDS011;7958;53.024;12.970;2023-04-06T07:08:39;6.33;;;3.67;;
3571;SDS011;7958;53.024;12.970;2023-04-06T07:11:05;6.27;;;3.10;;
3571;SDS011;7958;53.024;12.970;2023-04-06T07:13:32;2.80;;;2.57;;
3571;SDS011;7958;53.024;12.970;2023-04-06T07:15:58;5.90;;;3.70;;
3571;SDS011;7958;53.024;12.970;2023-04-06T07:18:24;5.83;;;3.27;;
3571;SDS011;7958;53.024;12.970;2023-04-06T07:20:51;4.30;;;3.90;;
3571;SDS011;7958;53.024;12.970;2023-04-06T07:23:20;4.77;;;4.17;;
3571;SDS011;7958;53.024;12.970;2023-04-06T07:25:47;5.50;;;4.17;;
3571;SDS011;7958;53.024;12.970;2023-04-06T07:28:15;4.43;;;4.00;;
3571;SDS011;7958;53.024;12.970;2023-04-06T07:30:42;3.73;;;3.33;;
3571;SDS011;7958;53.024;12.970;2023-04-06T07:33:08;8.50;;;3.90;;
3571;SDS011;7958;53.024;12.970;2023-04-06T07:35:35;3.47;;;3.17;;
3571;SDS011;7958;53.024;12.970;2023-04-06T07:38:03;4.03;;;3.60;;
3571;SDS011;7958;53.024;12.970;2023-04-06T07:40:31;4.43;;;3.37;;
3571;SDS011;7958;53.024;12.970;2023-04-06T07:42:58;3.93;;;3.07;;
3571;SDS011;7958;53.024;12.970;2023-04-06T07:45:27;4.97;;;3.63;;
3571;SDS011;7958;53.024;12.970;2023-04-06T07:47:53;3.53;;;3.13;;
3571;SDS011;7958;53.024;12.970;2023-04-06T07:50:19;4.40;;;3.20;;
3571;SDS011;7958;53.024;12.970;2023-04-06T07:52:46;4.50;;;3.33;;
3571;SDS011;7958;53.024;12.970;2023-04-06T07:55:12;3.57;;;3.27;;
3571;SDS011;7958;53.024;12.970;2023-04-06T07:57:40;6.50;;;3.30;;
3571;SDS011;7958;53.024;12.970;2023-04-06T08:00:07;2.60;;;2.40;;
3571;SDS011;7958;53.024;12.970;2023-04-06T08:02:35;3.60;;;3.30;;
3571;SDS011;7958;53.024;12.970;2023-04-06T08:05:01;3.50;;;2.80;;
3571;SDS011;7958;53.024;12.970;2023-04-06T08:07:28;4.20;;;2.80;;
3571;SDS011;7958;53.024;12.970;2023-04-06T08:09:54;2.40;;;2.20;;
3571;SDS011;7958;53.024;12.970;2023-04-06T08:12:21;5.93;;;2.93;;
3571;SDS011;7958;53.024;12.970;2023-04-06T08:14:48;3.13;;;2.73;;
3571;SDS011;7958;53.024;12.970;2023-04-06T08:17:15;5.30;;;2.90;;
3571;SDS011;7958;53.024;12.970;2023-04-06T08:19:44;4.43;;;3.40;;
3571;SDS011;7958;53.024;12.970;2023-04-06T08:22:11;6.07;;;3.87;;
3571;SDS011;7958;53.024;12.970;2023-04-06T08:24:37;3.57;;;2.97;;
3571;SDS011;7958;53.024;12.970;2023-04-06T08:27:04;3.73;;;2.70;;
3571;SDS011;7958;53.024;12.970;2023-04-06T08:29:30;3.00;;;2.80;;
3571;SDS011;7958;53.024;12.970;2023-04-06T08:31:58;3.20;;;2.70;;
3571;SDS011;7958;53.024;12.970;2023-04-06T08:34:25;5.53;;;3.00;;
3571;SDS011;7958;53.024;12.970;2023-04-06T08:36:52;2.60;;;2.40;;
3571;SDS011;7958;53.024;12.970;2023-04-06T08:39:18;3.10;;;2.80;;
3571;SDS011;7958;53.024;12.970;2023-04-06T08:41:50;2.80;;;2.40;;
3571;SDS011;7958;53.024;12.970;2023-04-06T08:44:17;2.73;;;2.43;;
3571;SDS011;7958;53.024;12.970;2023-04-06T08:46:44;3.00;;;2.00;;
3571;SDS011;7958;53.024;12.970;2023-04-06T08:49:12;2.33;;;2.10;;
3571;SDS011;7958;53.024;12.970;2023-04-06T08:51:39;3.73;;;2.37;;
3571;SDS011;7958;53.024;12.970;2023-04-06T08:54:05;2.03;;;1.90;;
3571;SDS011;7958;53.024;12.970;2023-04-06T08:56:32;2.50;;;2.20;;
3571;SDS011;7958;53.024;12.970;2023-04-06T08:58:59;5.30;;;2.40;;
3571;SDS011;7958;53.024;12.970;2023-04-06T09:01:26;2.73;;;2.30;;
3571;SDS011;7958;53.024;12.970;2023-04-06T09:03:55;3.33;;;2.23;;
3571;SDS011;7958;53.024;12.970;2023-04-06T09:06:24;2.30;;;2.10;;
3571;SDS011;7958;53.024;12.970;2023-04-06T09:08:52;3.30;;;2.00;;
3571;SDS011;7958;53.024;12.970;2023-04-06T09:11:19;2.10;;;1.90;;
3571;SDS011;7958;53.024;12.970;2023-04-06T09:13:47;3.63;;;2.27;;
3571;SDS011;7958;53.024;12.970;2023-04-06T09:16:14;3.00;;;2.70;;
3571;SDS011;7958;53.024;12.970;2023-04-06T09:18:40;2.60;;;2.40;;
3571;SDS011;7958;53.024;12.970;2023-04-06T09:21:07;2.93;;;2.63;;
3571;SDS011;7958;53.024;12.970;2023-04-06T09:23:36;2.90;;;2.40;;
3571;SDS011;7958;53.024;12.970;2023-04-06T09:26:06;2.97;;;2.67;;
3571;SDS011;7958;53.024;12.970;2023-04-06T09:28:44;2.20;;;2.10;;
3571;SDS011;7958;53.024;12.970;2023-04-06T09:31:11;2.20;;;2.00;;
3571;SDS011;7958;53.024;12.970;2023-04-06T09:33:39;2.60;;;2.13;;
3571;SDS011;7958;53.024;12.970;2023-04-06T09:36:07;3.20;;;2.90;;
3571;SDS011;7958;53.024;12.970;2023-04-06T09:38:35;2.57;;;2.37;;
3571;SDS011;7958;53.024;12.970;2023-04-06T09:41:03;2.57;;;2.37;;
3571;SDS011;7958;53.024;12.970;2023-04-06T09:43:29;3.30;;;2.30;;
3571;SDS011;7958;53.024;12.970;2023-04-06T09:45:56;2.30;;;2.20;;
3571;SDS011;7958;53.024;12.970;2023-04-06T09:48:23;3.00;;;2.70;;
3571;SDS011;7958;53.024;12.970;2023-04-06T09:50:51;4.70;;;2.80;;
3571;SDS011;7958;53.024;12.970;2023-04-06T09:53:23;1.90;;;1.80;;
3571;SDS011;7958;53.024;12.970;2023-04-06T09:55:56;2.37;;;2.17;;
3571;SDS011;7958;53.024;12.970;2023-04-06T09:58:25;2.50;;;2.30;;
3571;SDS011;7958;53.024;12.970;2023-04-06T10:00:53;4.30;;;3.60;;
3571;SDS011;7958;53.024;12.970;2023-04-06T10:03:26;3.00;;;2.27;;
3571;SDS011;7958;53.024;12.970;2023-04-06T10:05:57;3.70;;;2.63;;
3571;SDS011;7958;53.024;12.970;2023-04-06T10:08:28;2.30;;;1.70;;
3571;SDS011;7958;53.024;12.970;2023-04-06T10:10:56;3.60;;;3.10;;
3571;SDS011;7958;53.024;12.970;2023-04-06T10:13:23;3.30;;;2.03;;
3571;SDS011;7958;53.024;12.970;2023-04-06T10:15:49;2.50;;;2.30;;
3571;SDS011;7958;53.024;12.970;2023-04-06T10:18:16;2.40;;;1.67;;
3571;SDS011;7958;53.024;12.970;2023-04-06T10:20:46;2.20;;;2.00;;
3571;SDS011;7958;53.024;12.970;2023-04-06T10:23:17;3.00;;;1.60;;
3571;SDS011;7958;53.024;12.970;2023-04-06T10:25:52;2.20;;;1.77;;
3571;SDS011;7958;53.024;12.970;2023-04-06T10:28:21;1.90;;;1.80;;
3571;SDS011;7958;53.024;12.970;2023-04-06T10:30:48;3.17;;;2.97;;
3571;SDS011;7958;53.024;12.970;2023-04-06T10:33:14;2.20;;;1.90;;
3571;SDS011;7958;53.024;12.970;2023-04-06T10:35:42;2.40;;;2.20;;
3571;SDS011;7958;53.024;12.970;2023-04-06T10:38:08;3.83;;;2.20;;
3571;SDS011;7958;53.024;12.970;2023-04-06T10:40:36;3.03;;;2.37;;
3571;SDS011;7958;53.024;12.970;2023-04-06T10:43:07;2.13;;;1.93;;
3571;SDS011;7958;53.024;12.970;2023-04-06T10:45:36;2.70;;;1.90;;
3571;SDS011;7958;53.024;12.970;2023-04-06T10:48:12;1.80;;;1.70;;
3571;SDS011;7958;53.024;12.970;2023-04-06T10:50:39;3.83;;;2.43;;
3571;SDS011;7958;53.024;12.970;2023-04-06T10:53:06;2.10;;;2.00;;
3571;SDS011;7958;53.024;12.970;2023-04-06T10:55:32;2.53;;;2.33;;
3571;SDS011;7958;53.024;12.970;2023-04-06T10:57:59;3.30;;;1.93;;
3571;SDS011;7958;53.024;12.970;2023-04-06T11:00:25;2.77;;;2.13;;
3571;SDS011;7958;53.024;12.970;2023-04-06T11:02:59;2.77;;;1.70;;
3571;SDS011;7958;53.024;12.970;2023-04-06T11:05:27;2.50;;;1.90;;
3571;SDS011;7958;53.024;12.970;2023-04-06T11:07:53;2.90;;;2.10;;
3571;SDS011;7958;53.024;12.970;2023-04-06T11:10:20;3.47;;;2.50;;
3571;SDS011;7958;53.024;12.970;2023-04-06T11:12:52;6.63;;;2.10;;
3571;SDS011;7958;53.024;12.970;2023-04-06T11:15:19;2.00;;;1.90;;
3571;SDS011;7958;53.024;12.970;2023-04-06T11:17:46;2.57;;;2.37;;
3571;SDS011;7958;53.024;12.970;2023-04-06T11:20:15;2.70;;;2.00;;
3571;SDS011;7958;53.024;12.970;2023-04-06T11:22:48;2.33;;;2.17;;
3571;SDS011;7958;53.024;12.970;2023-04-06T11:25:16;2.77;;;2.27;;
3571;SDS011;7958;53.024;12.970;2023-04-06T11:27:43;3.53;;;2.10;;
3571;SDS011;7958;53.024;12.970;2023-04-06T11:30:10;2.60;;;2.40;;
3571;SDS011;7958;53.024;12.970;2023-04-06T11:32:39;1.83;;;1.73;;
3571;SDS011;7958;53.024;12.970;2023-04-06T11:35:07;3.27;;;2.10;;
3571;SDS011;7958;53.024;12.970;2023-04-06T11:37:35;2.60;;;2.27;;
3571;SDS011;7958;53.024;12.970;2023-04-06T11:40:02;2.50;;;2.20;;
3571;SDS011;7958;53.024;12.970;2023-04-06T11:42:29;5.10;;;2.30;;
3571;SDS011;7958;53.024;12.970;2023-04-06T11:44:56;2.60;;;2.13;;
3571;SDS011;7958;53.024;12.970;2023-04-06T11:47:27;1.80;;;1.70;;
3571;SDS011;7958;53.024;12.970;2023-04-06T11:49:55;2.37;;;2.20;;
3571;SDS011;7958;53.024;12.970;2023-04-06T11:52:25;3.13;;;2.53;;
3571;SDS011;7958;53.024;12.970;2023-04-06T11:54:54;3.60;;;2.20;;
3571;SDS011;7958;53.024;12.970;2023-04-06T11:57:21;3.67;;;2.40;;
3571;SDS011;7958;53.024;12.970;2023-04-06T11:59:49;2.30;;;2.00;;
3571;SDS011;7958;53.024;12.970;2023-04-06T12:02:15;2.10;;;2.00;;
3571;SDS011;7958;53.024;12.970;2023-04-06T12:04:42;3.83;;;1.93;;
3571;SDS011;7958;53.024;12.970;2023-04-06T12:07:09;5.50;;;2.33;;
3571;SDS011;7958;53.024;12.970;2023-04-06T12:09:36;3.77;;;2.27;;
3571;SDS011;7958;53.024;12.970;2023-04-06T12:12:05;3.50;;;2.20;;
3571;SDS011;7958;53.024;12.970;2023-04-06T12:14:31;2.00;;;1.90;;
3571;SDS011;7958;53.024;12.970;2023-04-06T12:16:59;2.10;;;2.00;;
3571;SDS011;7958;53.024;12.970;2023-04-06T12:19:25;3.13;;;2.23;;
3571;SDS011;7958;53.024;12.970;2023-04-06T12:21:52;2.90;;;2.40;;
3571;SDS011;7958;53.024;12.970;2023-04-06T12:24:19;2.00;;;1.90;;
3571;SDS011;7958;53.024;12.970;2023-04-06T12:26:46;2.40;;;2.20;;
3571;SDS011;7958;53.024;12.970;2023-04-06T12:29:13;5.77;;;2.70;;
3571;SDS011;7958;53.024;12.970;2023-04-06T12:31:40;2.17;;;1.97;;
3571;SDS011;7958;53.024;12.970;2023-04-06T12:34:08;4.17;;;2.80;;
3571;SDS011;7958;53.024;12.970;2023-04-06T12:36:34;2.90;;;2.40;;
3571;SDS011;7958;53.024;12.970;2023-04-06T12:39:00;2.93;;;2.73;;
3571;SDS011;7958;53.024;12.970;2023-04-06T12:41:27;2.10;;;2.00;;
3571;SDS011;7958;53.024;12.970;2023-04-06T12:43:55;3.90;;;2.50;;
3571;SDS011;7958;53.024;12.970;2023-04-06T12:46:23;3.03;;;2.30;;
3571;SDS011;7958;53.024;12.970;2023-04-06T12:48:50;4.60;;;2.90;;
3571;SDS011;7958;53.024;12.970;2023-04-06T12:51:18;3.67;;;2.87;;
3571;SDS011;7958;53.024;12.970;2023-04-06T12:53:45;3.37;;;2.70;;
3571;SDS011;7958;53.024;12.970;2023-04-06T12:56:12;2.90;;;2.50;;
3571;SDS011;7958;53.024;12.970;2023-04-06T12:58:39;2.83;;;2.20;;
3571;SDS011;7958;53.024;12.970;2023-04-06T13:01:07;2.70;;;2.50;;
3571;SDS011;7958;53.024;12.970;2023-04-06T13:03:35;2.73;;;2.53;;
3571;SDS011;7958;53.024;12.970;2023-04-06T13:06:01;3.83;;;2.30;;
3571;SDS011;7958;53.024;12.970;2023-04-06T13:08:28;3.10;;;2.20;;
3571;SDS011;7958;53.024;12.970;2023-04-06T13:10:55;3.20;;;2.40;;
3571;SDS011;7958;53.024;12.970;2023-04-06T13:13:22;2.33;;;2.13;;
3571;SDS011;7958;53.024;12.970;2023-04-06T13:15:50;3.23;;;2.30;;
3571;SDS011;7958;53.024;12.970;2023-04-06T13:18:17;2.63;;;1.87;;
3571;SDS011;7958;53.024;12.970;2023-04-06T13:20:46;7.00;;;2.30;;
3571;SDS011;7958;53.024;12.970;2023-04-06T13:23:12;2.97;;;1.87;;
3571;SDS011;7958;53.024;12.970;2023-04-06T13:25:39;2.50;;;2.30;;
3571;SDS011;7958;53.024;12.970;2023-04-06T13:28:05;2.40;;;2.20;;
3571;SDS011;7958;53.024;12.970;2023-04-06T13:30:31;2.00;;;1.90;;
3571;SDS011;7958;53.024;12.970;2023-04-06T13:32:58;2.20;;;2.10;;
3571;SDS011;7958;53.024;12.970;2023-04-06T13:35:24;2.40;;;2.20;;
3571;SDS011;7958;53.024;12.970;2023-04-06T13:37:52;3.10;;;2.50;;
3571;SDS011;7958;53.024;12.970;2023-04-06T13:40:19;2.33;;;2.10;;
3571;SDS011;7958;53.024;12.970;2023-04-06T13:42:46;2.97;;;2.73;;
3571;SDS011;7958;53.024;12.970;2023-04-06T13:45:13;2.70;;;2.50;;
3571;SDS011;7958;53.024;12.970;2023-04-06T13:47:39;1.93;;;1.73;;
3571;SDS011;7958;53.024;12.970;2023-04-06T13:50:06;2.73;;;2.27;;
3571;SDS011;7958;53.024;12.970;2023-04-06T13:52:34;4.70;;;2.07;;
3571;SDS011;7958;53.024;12.970;2023-04-06T13:55:03;3.50;;;2.30;;
3571;SDS011;7958;53.024;12.970;2023-04-06T13:57:30;2.67;;;2.43;;
3571;SDS011;7958;53.024;12.970;2023-04-06T13:59:57;2.70;;;2.20;;
3571;SDS011;7958;53.024;12.970;2023-04-06T14:02:23;2.17;;;2.00;;
3571;SDS011;7958;53.024;12.970;2023-04-06T14:04:52;2.00;;;1.90;;
3571;SDS011;7958;53.024;12.970;2023-04-06T14:07:20;3.20;;;2.20;;
3571;SDS011;7958;53.024;12.970;2023-04-06T14:09:47;2.20;;;2.00;;
3571;SDS011;7958;53.024;12.970;2023-04-06T14:12:14;2.13;;;1.97;;
3571;SDS011;7958;53.024;12.970;2023-04-06T14:14:41;5.77;;;2.40;;
3571;SDS011;7958;53.024;12.970;2023-04-06T14:17:07;2.23;;;2.03;;
3571;SDS011;7958;53.024;12.970;2023-04-06T14:19:33;3.73;;;2.07;;
3571;SDS011;7958;53.024;12.970;2023-04-06T14:22:01;4.33;;;2.10;;
3571;SDS011;7958;53.024;12.970;2023-04-06T14:24:27;2.30;;;2.10;;
3571;SDS011;7958;53.024;12.970;2023-04-06T14:26:53;4.13;;;2.70;;
3571;SDS011;7958;53.024;12.970;2023-04-06T14:29:23;2.07;;;1.90;;
3571;SDS011;7958;53.024;12.970;2023-04-06T14:31:51;2.40;;;2.10;;
3571;SDS011;7958;53.024;12.970;2023-04-06T14:34:18;2.00;;;1.80;;
3571;SDS011;7958;53.024;12.970;2023-04-06T14:36:44;2.53;;;2.33;;
3571;SDS011;7958;53.024;12.970;2023-04-06T14:39:11;5.27;;;2.70;;
3571;SDS011;7958;53.024;12.970;2023-04-06T14:41:37;2.47;;;2.20;;
3571;SDS011;7958;53.024;12.970;2023-04-06T14:44:03;2.10;;;1.83;;
3571;SDS011;7958;53.024;12.970;2023-04-06T14:46:32;2.17;;;2.03;;
3571;SDS011;7958;53.024;12.970;2023-04-06T14:48:59;4.07;;;2.23;;
3571;SDS011;7958;53.024;12.970;2023-04-06T14:51:25;2.20;;;2.00;;
3571;SDS011;7958;53.024;12.970;2023-04-06T14:53:52;3.73;;;2.57;;
3571;SDS011;7958;53.024;12.970;2023-04-06T14:56:19;2.03;;;1.90;;
3571;SDS011;7958;53.024;12.970;2023-04-06T14:58:47;2.20;;;2.00;;